createdAt,value
2018-10-05T00:02:13.831Z,21.07
2018-10-05T00:04:41.869Z,17.33
2018-10-05T00:07:09.921Z,16.70
2018-10-05T00:09:37.969Z,13.97
2018-10-05T00:12:06.010Z,17.30
2018-10-05T00:14:34.085Z,16.70
2018-10-05T00:17:02.154Z,20.47
2018-10-05T00:19:30.257Z,20.00
2018-10-05T00:21:58.313Z,16.73
2018-10-05T00:24:26.379Z,17.90
2018-10-05T00:26:54.427Z,22.03
2018-10-05T00:29:22.491Z,22.27
2018-10-05T00:31:50.548Z,18.83
2018-10-05T00:34:18.565Z,16.80
2018-10-05T00:36:46.706Z,23.03
2018-10-05T00:39:14.935Z,22.83
2018-10-05T00:41:42.986Z,18.03
2018-10-05T00:44:10.996Z,20.80
2018-10-05T00:46:39.018Z,15.30
2018-10-05T00:49:07.071Z,17.17
2018-10-05T00:51:35.090Z,13.77
2018-10-05T00:54:03.130Z,17.50
2018-10-05T00:56:31.205Z,21.67
2018-10-05T00:58:59.277Z,17.10
2018-10-05T01:01:27.338Z,19.90
2018-10-05T01:03:55.405Z,19.47
2018-10-05T01:06:23.451Z,20.90
2018-10-05T01:08:51.511Z,17.80
2018-10-05T01:11:19.564Z,14.87
2018-10-05T01:13:47.638Z,28.33
2018-10-05T01:16:15.658Z,16.80
2018-10-05T01:18:43.742Z,21.10
2018-10-05T01:21:11.791Z,17.47
2018-10-05T01:23:39.835Z,23.63
2018-10-05T01:26:07.890Z,24.13
2018-10-05T01:28:36.068Z,15.50
2018-10-05T01:31:04.099Z,17.63
2018-10-05T01:33:32.136Z,14.90
2018-10-05T01:36:00.165Z,16.23
2018-10-05T01:38:28.235Z,14.80
2018-10-05T01:40:56.281Z,20.27
2018-10-05T01:43:24.352Z,18.70
2018-10-05T01:45:52.374Z,21.93
2018-10-05T01:48:20.453Z,27.90
2018-10-05T01:50:48.464Z,16.00
2018-10-05T01:53:16.509Z,12.70
2018-10-05T01:55:44.517Z,20.00
2018-10-05T01:58:12.589Z,22.37
2018-10-05T02:00:40.638Z,24.63
2018-10-05T02:03:08.729Z,20.43
2018-10-05T02:05:36.815Z,17.73
2018-10-05T02:08:04.897Z,16.43
2018-10-05T02:10:32.930Z,15.23
2018-10-05T02:13:00.961Z,14.83
2018-10-05T02:15:29.026Z,22.90
2018-10-05T02:17:57.085Z,20.10
2018-10-05T02:20:25.215Z,20.93
2018-10-05T02:22:53.239Z,20.63
2018-10-05T02:25:21.319Z,23.63
2018-10-05T02:27:49.383Z,23.67
2018-10-05T02:30:17.445Z,17.02
2018-10-05T02:32:45.514Z,21.27
2018-10-05T02:35:13.550Z,17.10
2018-10-05T02:37:41.571Z,24.03
2018-10-05T02:40:09.604Z,24.43
2018-10-05T02:42:37.713Z,15.43
2018-10-05T02:45:05.725Z,15.57
2018-10-05T02:47:33.793Z,19.33
2018-10-05T02:50:01.850Z,23.77
2018-10-05T02:52:30.014Z,24.33
2018-10-05T02:54:58.049Z,18.00
2018-10-05T02:57:26.095Z,19.20
2018-10-05T02:59:54.180Z,18.80
2018-10-05T03:02:32.527Z,29.63
2018-10-05T03:05:00.574Z,22.33
2018-10-05T03:07:29.562Z,17.80
2018-10-05T03:09:58.188Z,20.07
2018-10-05T03:12:26.337Z,17.17
2018-10-05T03:14:54.405Z,17.97
2018-10-05T03:17:22.466Z,20.83
2018-10-05T03:19:50.614Z,18.47
2018-10-05T03:22:18.610Z,23.13
2018-10-05T03:24:46.710Z,25.97
2018-10-05T03:27:14.736Z,20.50
2018-10-05T03:29:43.050Z,21.07
2018-10-05T03:32:11.363Z,26.00
2018-10-05T03:34:39.461Z,27.90
2018-10-05T03:37:07.506Z,23.60
2018-10-05T03:39:35.542Z,26.00
2018-10-05T03:42:03.569Z,22.23
2018-10-05T03:44:31.613Z,23.33
2018-10-05T03:46:59.681Z,20.40
2018-10-05T03:49:27.766Z,24.73
2018-10-05T03:51:55.810Z,19.33
2018-10-05T03:54:24.741Z,17.37
2018-10-05T03:56:52.812Z,17.30
2018-10-05T03:59:21.095Z,13.37
2018-10-05T04:01:49.190Z,26.27
2018-10-05T04:04:17.234Z,21.57
2018-10-05T04:06:45.262Z,23.17
2018-10-05T04:09:13.293Z,23.57
2018-10-05T04:11:41.414Z,23.47
2018-10-05T04:14:09.450Z,20.93
2018-10-05T04:16:37.485Z,24.00
2018-10-05T04:19:05.585Z,23.80
2018-10-05T04:21:33.597Z,28.90
2018-10-05T04:24:01.698Z,23.00
2018-10-05T04:26:29.872Z,27.57
2018-10-05T04:28:57.942Z,23.90
2018-10-05T04:31:26.079Z,17.30
2018-10-05T04:33:54.106Z,21.17
2018-10-05T04:36:22.158Z,19.17
2018-10-05T04:38:50.195Z,21.47
2018-10-05T04:41:18.280Z,31.63
2018-10-05T04:43:46.238Z,17.67
2018-10-05T04:46:14.284Z,20.13
2018-10-05T04:48:42.359Z,21.13
2018-10-05T04:51:10.443Z,18.93
2018-10-05T04:53:38.479Z,21.10
2018-10-05T04:56:06.573Z,21.07
2018-10-05T04:58:34.621Z,23.60
2018-10-05T05:01:02.649Z,20.70
2018-10-05T05:03:30.726Z,22.90
2018-10-05T05:05:58.779Z,28.33
2018-10-05T05:08:26.885Z,30.77
2018-10-05T05:10:54.934Z,33.37
2018-10-05T05:13:23.034Z,27.17
2018-10-05T05:15:51.078Z,23.33
2018-10-05T05:18:19.111Z,24.90
2018-10-05T05:20:47.192Z,22.33
2018-10-05T05:23:15.233Z,32.83
2018-10-05T05:25:43.342Z,29.00
2018-10-05T05:28:11.365Z,25.40
2018-10-05T05:30:39.462Z,24.10
2018-10-05T05:33:07.488Z,22.27
2018-10-05T05:35:35.535Z,32.50
2018-10-05T05:38:03.570Z,16.93
2018-10-05T05:40:31.773Z,25.40
2018-10-05T05:42:59.809Z,30.97
2018-10-05T05:45:27.877Z,27.30
2018-10-05T05:47:55.953Z,18.10
2018-10-05T05:50:23.997Z,20.47
2018-10-05T05:52:52.281Z,28.63
2018-10-05T05:55:20.309Z,24.37
2018-10-05T05:57:48.425Z,17.87
2018-10-05T06:00:16.570Z,16.80
2018-10-05T06:02:44.640Z,18.53
2018-10-05T06:05:12.713Z,17.73
2018-10-05T06:07:40.761Z,11.67
2018-10-05T06:10:08.810Z,15.13
2018-10-05T06:12:36.846Z,11.50
2018-10-05T06:15:05.166Z,17.73
2018-10-05T06:17:33.194Z,11.73
2018-10-05T06:20:01.345Z,13.60
2018-10-05T06:22:30.595Z,8.80
2018-10-05T06:24:58.433Z,8.87
2018-10-05T06:27:26.529Z,6.43
2018-10-05T06:29:54.499Z,6.60
2018-10-05T06:32:22.611Z,6.55
2018-10-05T06:34:50.656Z,7.80
2018-10-05T06:37:18.722Z,9.07
2018-10-05T06:39:47.666Z,6.60
2018-10-05T06:42:15.790Z,10.00
2018-10-05T06:44:43.757Z,5.17
2018-10-05T06:47:11.830Z,8.43
2018-10-05T06:49:40.049Z,7.93
2018-10-05T06:52:08.101Z,6.47
2018-10-05T06:54:36.196Z,11.77
2018-10-05T06:57:04.336Z,6.73
2018-10-05T06:59:32.414Z,8.37
2018-10-05T07:02:01.607Z,7.87
2018-10-05T07:04:29.546Z,6.37
2018-10-05T07:06:57.613Z,8.40
2018-10-05T07:09:26.755Z,7.70
2018-10-05T07:11:54.850Z,6.60
2018-10-05T07:14:22.911Z,6.43
2018-10-05T07:16:51.012Z,8.13
2018-10-05T07:19:19.054Z,14.20
2018-10-05T07:21:47.160Z,6.73
2018-10-05T07:24:15.377Z,5.53
2018-10-05T07:26:43.706Z,6.23
2018-10-05T07:29:11.762Z,5.87
2018-10-05T07:31:39.838Z,7.70
2018-10-05T07:34:08.939Z,8.43
2018-10-05T07:36:36.990Z,6.83
2018-10-05T07:39:07.107Z,5.07
2018-10-05T07:41:35.166Z,5.33
2018-10-05T07:44:03.202Z,6.93
2018-10-05T07:46:31.321Z,9.07
2018-10-05T07:48:59.350Z,9.77
2018-10-05T07:51:27.412Z,4.93
2018-10-05T07:53:55.446Z,4.70
2018-10-05T07:56:23.514Z,4.50
2018-10-05T07:58:51.575Z,5.73
2018-10-05T08:01:19.602Z,4.40
2018-10-05T08:03:47.710Z,9.13
2018-10-05T08:06:15.921Z,7.40
2018-10-05T08:08:44.073Z,7.77
2018-10-05T08:11:12.205Z,7.77
2018-10-05T08:13:40.280Z,5.80
2018-10-05T08:16:08.398Z,4.63
2018-10-05T08:18:36.529Z,9.07
2018-10-05T08:21:04.604Z,5.13
2018-10-05T08:23:32.622Z,5.20
2018-10-05T08:26:00.833Z,5.50
2018-10-05T08:28:28.893Z,9.07
2018-10-05T08:30:56.979Z,14.43
2018-10-05T08:33:25.022Z,3.83
2018-10-05T08:35:53.166Z,7.40
2018-10-05T08:38:21.250Z,8.20
2018-10-05T08:40:49.269Z,3.60
2018-10-05T08:43:17.291Z,5.17
2018-10-05T08:45:45.338Z,5.93
2018-10-05T08:48:13.369Z,6.20
2018-10-05T08:50:41.430Z,4.40
2018-10-05T08:53:09.489Z,5.00
2018-10-05T08:55:37.557Z,8.30
2018-10-05T08:58:05.626Z,5.53
2018-10-05T09:00:33.907Z,14.00
2018-10-05T09:03:01.895Z,9.47
2018-10-05T09:05:30.016Z,3.77
2018-10-05T09:07:58.114Z,6.80
2018-10-05T09:10:26.253Z,9.87
2018-10-05T09:12:54.323Z,6.00
2018-10-05T09:15:22.360Z,5.67
2018-10-05T09:17:50.475Z,8.47
2018-10-05T09:20:18.555Z,7.30
2018-10-05T09:22:46.697Z,4.17
2018-10-05T09:25:14.778Z,5.90
2018-10-05T09:27:42.928Z,8.50
2018-10-05T09:30:12.172Z,6.50
2018-10-05T09:32:40.270Z,7.23
2018-10-05T09:35:08.304Z,5.43
2018-10-05T09:37:36.720Z,4.67
2018-10-05T09:40:04.658Z,5.20
2018-10-05T09:42:32.744Z,6.30
2018-10-05T09:45:00.903Z,5.10
2018-10-05T09:47:28.887Z,7.70
2018-10-05T09:49:57.068Z,6.73
2018-10-05T09:52:25.544Z,6.63
2018-10-05T09:54:53.509Z,5.40
2018-10-05T09:57:21.571Z,4.97
2018-10-05T09:59:49.705Z,7.37
2018-10-05T10:02:22.903Z,9.53
2018-10-05T10:04:51.245Z,7.30
2018-10-05T10:07:21.312Z,13.83
2018-10-05T10:09:49.416Z,5.30
2018-10-05T10:12:17.557Z,11.63
2018-10-05T10:14:45.600Z,7.00
2018-10-05T10:17:13.671Z,8.00
2018-10-05T10:19:41.779Z,8.07
2018-10-05T10:22:09.829Z,11.27
2018-10-05T10:24:37.878Z,7.73
2018-10-05T10:27:05.943Z,7.13
2018-10-05T10:29:34.194Z,11.23
2018-10-05T10:32:02.215Z,8.37
2018-10-05T10:34:30.293Z,10.97
2018-10-05T10:36:58.330Z,12.07
2018-10-05T10:39:26.477Z,8.67
2018-10-05T10:41:54.559Z,8.10
2018-10-05T10:44:22.787Z,8.60
2018-10-05T10:46:50.833Z,21.50
2018-10-05T10:49:18.876Z,7.50
2018-10-05T10:51:46.986Z,6.47
2018-10-05T10:54:15.041Z,11.90
2018-10-05T10:56:43.210Z,10.93
2018-10-05T10:59:11.394Z,6.23
2018-10-05T11:01:39.615Z,7.23
2018-10-05T11:04:07.886Z,12.13
2018-10-05T11:06:35.910Z,9.53
2018-10-05T11:09:04.829Z,11.33
2018-10-05T11:11:32.911Z,7.30
2018-10-05T11:14:01.054Z,17.63
2018-10-05T11:16:29.195Z,12.40
2018-10-05T11:18:57.263Z,13.30
2018-10-05T11:21:26.270Z,8.97
2018-10-05T11:23:54.317Z,6.37
2018-10-05T11:26:22.339Z,10.53
2018-10-05T11:28:50.364Z,8.60
2018-10-05T11:31:18.595Z,12.60
2018-10-05T11:33:46.650Z,8.37
2018-10-05T11:36:14.779Z,7.33
2018-10-05T11:38:42.026Z,11.53
2018-10-05T11:41:10.148Z,7.30
2018-10-05T11:43:38.259Z,11.17
2018-10-05T11:46:06.313Z,9.50
2018-10-05T11:48:34.389Z,12.43
2018-10-05T11:51:02.493Z,11.63
2018-10-05T11:53:30.570Z,12.10
2018-10-05T11:55:58.772Z,11.03
2018-10-05T11:58:26.958Z,6.60
2018-10-05T12:00:55.018Z,7.50
2018-10-05T12:03:23.176Z,11.83
2018-10-05T12:05:51.142Z,12.13
2018-10-05T12:08:19.330Z,22.30
2018-10-05T12:10:47.408Z,11.00
2018-10-05T12:13:15.457Z,14.13
2018-10-05T12:15:43.590Z,8.53
2018-10-05T12:18:11.817Z,10.47
2018-10-05T12:20:39.925Z,13.70
2018-10-05T12:23:08.077Z,12.60
2018-10-05T12:25:36.184Z,13.97
2018-10-05T12:28:04.230Z,16.20
2018-10-05T12:30:32.297Z,8.27
2018-10-05T12:33:00.377Z,9.10
2018-10-05T12:35:28.434Z,8.57
2018-10-05T12:37:56.499Z,12.63
2018-10-05T12:40:24.550Z,10.30
2018-10-05T12:42:52.654Z,7.43
2018-10-05T12:45:20.718Z,10.90
2018-10-05T12:47:49.819Z,7.60
2018-10-05T12:50:17.994Z,5.70
2018-10-05T12:52:46.048Z,9.30
2018-10-05T12:55:14.094Z,12.43
2018-10-05T12:57:42.158Z,7.97
2018-10-05T13:00:10.198Z,12.70
2018-10-05T13:02:38.297Z,10.50
2018-10-05T13:05:06.442Z,12.77
2018-10-05T13:07:34.539Z,9.10
2018-10-05T13:10:02.644Z,7.80
2018-10-05T13:12:30.718Z,13.07
2018-10-05T13:14:58.913Z,9.30
2018-10-05T13:17:27.010Z,5.67
2018-10-05T13:19:55.053Z,13.70
2018-10-05T13:22:23.266Z,7.90
2018-10-05T13:24:51.608Z,7.43
2018-10-05T13:27:19.631Z,6.60
2018-10-05T13:29:47.892Z,7.37
2018-10-05T13:32:15.970Z,4.27
2018-10-05T13:34:44.091Z,8.10
2018-10-05T13:37:12.210Z,4.53
2018-10-05T13:39:40.201Z,8.10
2018-10-05T13:42:08.386Z,8.80
2018-10-05T13:44:36.452Z,8.60
2018-10-05T13:47:04.677Z,9.63
2018-10-05T13:49:32.786Z,12.07
2018-10-05T13:52:00.914Z,23.37
2018-10-05T13:54:29.026Z,7.50
2018-10-05T13:56:57.077Z,5.53
2018-10-05T13:59:25.103Z,5.60
2018-10-05T14:01:53.229Z,7.70
2018-10-05T14:04:21.306Z,4.73
2018-10-05T14:06:49.366Z,8.97
2018-10-05T14:09:17.427Z,15.90
2018-10-05T14:11:45.572Z,3.53
2018-10-05T14:14:13.629Z,10.27
2018-10-05T14:16:41.750Z,6.40
2018-10-05T14:19:10.877Z,8.73
2018-10-05T14:21:38.944Z,7.60
2018-10-05T14:24:06.998Z,11.47
2018-10-05T14:26:35.014Z,8.70
2018-10-05T14:29:03.042Z,8.33
2018-10-05T14:31:31.189Z,8.73
2018-10-05T14:33:59.293Z,5.83
2018-10-05T14:36:27.328Z,7.33
2018-10-05T14:38:55.400Z,8.60
2018-10-05T14:41:23.509Z,4.80
2018-10-05T14:43:51.571Z,10.73
2018-10-05T14:46:19.646Z,8.23
2018-10-05T14:48:47.760Z,4.30
2018-10-05T14:51:15.798Z,4.57
2018-10-05T14:53:43.830Z,7.63
2018-10-05T14:56:11.982Z,10.60
2018-10-05T14:58:40.071Z,8.30
2018-10-05T15:01:08.157Z,8.20
2018-10-05T15:03:36.225Z,5.73
2018-10-05T15:06:04.283Z,9.80
2018-10-05T15:08:32.326Z,4.23
2018-10-05T15:11:00.413Z,16.57
2018-10-05T15:13:28.475Z,20.30
2018-10-05T15:15:56.545Z,10.27
2018-10-05T15:18:24.579Z,8.90
2018-10-05T15:20:52.866Z,8.47
2018-10-05T15:23:21.093Z,9.10
2018-10-05T15:25:49.252Z,5.40
2018-10-05T15:28:17.380Z,6.07
2018-10-05T15:30:45.426Z,4.97
2018-10-05T15:33:13.503Z,11.53
2018-10-05T15:35:41.557Z,11.63
2018-10-05T15:38:09.613Z,5.60
2018-10-05T15:40:37.663Z,10.30
2018-10-05T15:43:05.761Z,5.83
2018-10-05T15:45:33.857Z,15.73
2018-10-05T15:48:01.953Z,11.13
2018-10-05T15:50:30.014Z,7.30
2018-10-05T15:52:58.054Z,2.93
2018-10-05T15:55:26.089Z,10.40
2018-10-05T15:57:54.149Z,14.60
2018-10-05T16:00:22.193Z,10.90
2018-10-05T16:02:50.249Z,4.57
2018-10-05T16:05:18.369Z,5.80
2018-10-05T16:07:46.382Z,6.70
2018-10-05T16:10:14.423Z,8.87
2018-10-05T16:12:42.519Z,8.93
2018-10-05T16:15:10.590Z,14.67
2018-10-05T16:17:38.614Z,9.30
2018-10-05T16:20:06.709Z,12.20
2018-10-05T16:22:34.811Z,8.37
2018-10-05T16:25:02.833Z,12.73
2018-10-05T16:27:30.946Z,6.63
2018-10-05T16:29:58.978Z,8.13
2018-10-05T16:32:27.051Z,5.33
2018-10-05T16:34:55.069Z,6.93
2018-10-05T16:37:23.192Z,13.67
2018-10-05T16:39:51.262Z,11.70
2018-10-05T16:42:19.332Z,7.03
2018-10-05T16:44:47.382Z,15.63
2018-10-05T16:47:15.519Z,6.37
2018-10-05T16:49:43.668Z,11.77
2018-10-05T16:52:11.722Z,11.80
2018-10-05T16:54:39.802Z,12.70
2018-10-05T16:57:07.875Z,5.10
2018-10-05T16:59:36.011Z,7.80
2018-10-05T17:02:04.325Z,8.50
2018-10-05T17:04:33.530Z,6.63
2018-10-05T17:07:01.683Z,10.83
2018-10-05T17:09:29.785Z,7.17
2018-10-05T17:11:57.827Z,8.93
2018-10-05T17:14:26.957Z,5.60
2018-10-05T17:16:54.994Z,13.90
2018-10-05T17:19:23.102Z,6.90
2018-10-05T17:21:51.141Z,9.40
2018-10-05T17:24:19.205Z,7.00
2018-10-05T17:26:47.383Z,28.03
2018-10-05T17:29:15.523Z,14.37
2018-10-05T17:31:43.590Z,18.73
2018-10-05T17:34:11.781Z,23.87
2018-10-05T17:36:39.857Z,12.70
2018-10-05T17:39:09.130Z,11.00
2018-10-05T17:41:37.206Z,17.53
2018-10-05T17:44:05.272Z,11.33
2018-10-05T17:46:33.348Z,17.70
2018-10-05T17:49:01.466Z,16.10
2018-10-05T17:51:29.570Z,11.80
2018-10-05T17:53:57.686Z,8.53
2018-10-05T17:56:25.810Z,10.63
2018-10-05T17:58:54.042Z,8.63
2018-10-05T18:01:22.178Z,14.33
2018-10-05T18:03:50.265Z,7.90
2018-10-05T18:06:18.309Z,9.13
2018-10-05T18:08:46.378Z,18.30
2018-10-05T18:11:14.568Z,7.57
2018-10-05T18:13:42.670Z,12.77
2018-10-05T18:16:10.742Z,8.50
2018-10-05T18:18:38.810Z,8.83
2018-10-05T18:21:06.852Z,7.77
2018-10-05T18:23:34.979Z,9.03
2018-10-05T18:26:03.171Z,6.63
2018-10-05T18:28:31.196Z,8.90
2018-10-05T18:30:59.373Z,7.17
2018-10-05T18:33:27.529Z,10.70
2018-10-05T18:35:55.609Z,9.83
2018-10-05T18:38:24.351Z,11.03
2018-10-05T18:40:52.454Z,11.90
2018-10-05T18:43:20.549Z,11.83
2018-10-05T18:45:48.752Z,7.73
2018-10-05T18:48:16.870Z,11.40
2018-10-05T18:50:44.982Z,12.53
2018-10-05T18:53:13.018Z,10.17
2018-10-05T18:55:41.076Z,13.43
2018-10-05T18:58:09.117Z,7.17
2018-10-05T19:00:37.274Z,13.30
2018-10-05T19:03:05.373Z,14.63
2018-10-05T19:05:33.433Z,11.43
2018-10-05T19:08:01.483Z,11.50
2018-10-05T19:10:29.515Z,10.90
2018-10-05T19:12:57.649Z,10.97
2018-10-05T19:15:25.689Z,9.90
2018-10-05T19:17:53.742Z,9.57
2018-10-05T19:20:21.794Z,7.33
2018-10-05T19:22:50.010Z,8.27
2018-10-05T19:25:18.214Z,9.80
2018-10-05T19:27:46.296Z,12.73
2018-10-05T19:30:14.347Z,18.97
2018-10-05T19:32:42.413Z,12.63
2018-10-05T19:35:10.488Z,22.40
2018-10-05T19:37:38.800Z,24.53
2018-10-05T19:40:07.031Z,21.07
2018-10-05T19:42:36.102Z,20.47
2018-10-05T19:45:04.137Z,13.80
2018-10-05T19:48:35.550Z,19.40
2018-10-05T19:51:03.631Z,18.33
2018-10-05T19:53:31.757Z,13.40
2018-10-05T19:55:59.731Z,9.80
2018-10-05T19:58:27.761Z,11.23
2018-10-05T20:00:55.793Z,13.03
2018-10-05T20:03:23.873Z,8.17
2018-10-05T20:05:51.938Z,11.73
2018-10-05T20:08:20.056Z,8.17
2018-10-05T20:10:48.179Z,12.50
2018-10-05T20:13:16.205Z,19.13
2018-10-05T20:15:44.270Z,10.90
2018-10-05T20:18:12.409Z,10.50
2018-10-05T20:20:40.378Z,11.07
2018-10-05T20:23:08.408Z,11.90
2018-10-05T20:25:36.506Z,12.00
2018-10-05T20:28:04.538Z,8.10
2018-10-05T20:30:32.564Z,7.67
2018-10-05T20:33:00.722Z,11.10
2018-10-05T20:35:28.770Z,7.07
2018-10-05T20:37:56.801Z,9.17
2018-10-05T20:40:24.842Z,8.70
2018-10-05T20:42:52.873Z,26.07
2018-10-05T20:45:20.946Z,33.07
2018-10-05T20:47:50.065Z,12.30
2018-10-05T20:50:18.158Z,11.37
2018-10-05T20:52:53.156Z,11.67
2018-10-05T20:55:21.295Z,10.93
2018-10-05T20:57:49.347Z,8.20
2018-10-05T21:00:17.403Z,19.53
2018-10-05T21:02:45.493Z,9.53
2018-10-05T21:05:13.538Z,13.30
2018-10-05T21:07:42.573Z,10.57
2018-10-05T21:10:10.641Z,12.00
2018-10-05T21:12:38.736Z,11.80
2018-10-05T21:15:06.835Z,9.60
2018-10-05T21:17:35.933Z,13.63
2018-10-05T21:20:04.188Z,8.43
2018-10-05T21:22:32.233Z,10.87
2018-10-05T21:25:00.315Z,6.43
2018-10-05T21:27:28.384Z,9.23
2018-10-05T21:29:56.445Z,7.30
2018-10-05T21:32:24.465Z,6.33
2018-10-05T21:34:52.497Z,5.47
2018-10-05T21:37:20.575Z,15.47
2018-10-05T21:39:48.609Z,8.43
2018-10-05T21:42:16.681Z,10.43
2018-10-05T21:44:44.711Z,8.10
2018-10-05T21:47:12.737Z,8.70
2018-10-05T21:49:40.791Z,11.83
2018-10-05T21:52:09.994Z,12.03
2018-10-05T21:54:38.062Z,12.60
2018-10-05T21:57:06.283Z,7.33
2018-10-05T21:59:34.462Z,10.10
2018-10-05T22:02:02.549Z,15.53
2018-10-05T22:04:30.581Z,5.27
2018-10-05T22:06:58.650Z,9.27
2018-10-05T22:09:26.679Z,8.43
2018-10-05T22:11:54.763Z,14.47
2018-10-05T22:14:22.907Z,9.77
2018-10-05T22:16:51.161Z,9.63
2018-10-05T22:19:19.266Z,15.17
2018-10-05T22:21:47.306Z,16.33
2018-10-05T22:24:15.374Z,8.93
2018-10-05T22:26:43.445Z,11.27
2018-10-05T22:29:11.510Z,9.23
2018-10-05T22:31:39.626Z,10.28
2018-10-05T22:34:07.857Z,13.40
2018-10-05T22:36:35.933Z,10.20
2018-10-05T22:39:04.979Z,10.60
2018-10-05T22:41:33.014Z,12.20
2018-10-05T22:44:01.049Z,11.00
2018-10-05T22:46:29.070Z,7.80
2018-10-05T22:48:57.245Z,6.43
2018-10-05T22:51:25.419Z,10.40
2018-10-05T22:53:53.463Z,10.53
2018-10-05T22:56:21.506Z,11.60
2018-10-05T22:58:49.700Z,11.17
2018-10-05T23:01:17.897Z,13.20
2018-10-05T23:03:46.069Z,19.63
2018-10-05T23:06:14.228Z,12.53
2018-10-05T23:08:42.338Z,9.40
2018-10-05T23:11:10.486Z,12.10
2018-10-05T23:13:38.540Z,10.67
2018-10-05T23:16:06.947Z,16.77
2018-10-05T23:18:35.143Z,13.63
2018-10-05T23:21:03.343Z,13.13
2018-10-05T23:23:31.570Z,14.90
2018-10-05T23:26:00.631Z,16.23
2018-10-05T23:28:28.722Z,12.60
2018-10-05T23:30:56.762Z,18.80
2018-10-05T23:33:24.950Z,13.73
2018-10-05T23:35:53.078Z,10.90
2018-10-05T23:38:21.159Z,13.50
2018-10-05T23:40:49.190Z,13.90
2018-10-05T23:43:17.241Z,9.67
2018-10-05T23:45:45.365Z,8.80
2018-10-05T23:48:13.444Z,13.50
2018-10-05T23:50:41.493Z,5.70
2018-10-05T23:53:09.597Z,11.80
2018-10-05T23:55:37.717Z,13.13
2018-10-05T23:58:06.109Z,8.53
